Time;durP1;ratioP1;P1;durP2;ratioP2;P2;SDS_P1;SDS_P2;PMS_P1;PMS_P2;Temp;Humidity;BMP_temperature;BMP_pressure;BME280_temperature;BME280_humidity;BME280_pressure;Samples;Min_cycle;Max_cycle;Signal;HPM_P1;HPM_P2
2023/01/13 00:00:33;;;;;;;29.98;2.75;;;;;;;9.76;100.00;100117.31;4955700;29;20114;-76
2023/01/13 00:02:58;;;;;;;11.00;1.45;;;;;;;9.65;100.00;100112.78;4956389;28;20039;-74
2023/01/13 00:05:25;;;;;;;19.15;1.52;;;;;;;9.82;100.00;100121.38;4947376;28;20106;-74
2023/01/13 00:07:51;;;;;;;14.65;1.20;;;;;;;9.82;100.00;100126.84;4955740;28;20047;-75
2023/01/13 00:10:17;;;;;;;16.80;1.85;;;;;;;9.77;100.00;100108.09;4946024;29;20037;-74
2023/01/13 00:12:42;;;;;;;18.73;1.65;;;;;;;9.70;100.00;100126.91;4938354;29;20043;-75
2023/01/13 00:15:10;;;;;;;21.30;2.40;;;;;;;9.72;100.00;100132.25;4939858;29;20059;-75
2023/01/13 00:17:36;;;;;;;24.80;2.08;;;;;;;9.67;100.00;100135.38;4937247;29;20095;-75
2023/01/13 00:20:02;;;;;;;16.52;1.40;;;;;;;9.64;100.00;100143.88;4936326;29;20462;-75
2023/01/13 00:22:28;;;;;;;26.40;2.92;;;;;;;9.68;100.00;100131.66;4937013;29;20038;-74
2023/01/13 00:24:53;;;;;;;30.58;2.72;;;;;;;9.70;100.00;100118.72;4923825;29;20046;-74
2023/01/13 00:27:19;;;;;;;27.05;2.10;;;;;;;9.64;100.00;100127.47;4934697;29;20040;-75
2023/01/13 00:29:44;;;;;;;26.45;1.83;;;;;;;9.60;100.00;100127.88;4936134;29;20377;-74
2023/01/13 00:32:09;;;;;;;30.20;1.92;;;;;;;9.67;100.00;100126.31;4935599;29;20384;-75
2023/01/13 00:34:35;;;;;;;18.27;2.72;;;;;;;9.64;100.00;100132.06;4936589;29;20036;-76
2023/01/13 00:37:00;;;;;;;21.90;1.88;;;;;;;9.46;100.00;100112.66;4926208;29;20043;-75
2023/01/13 00:39:26;;;;;;;15.30;1.40;;;;;;;9.20;100.00;100113.91;4919209;29;20047;-75
2023/01/13 00:44:35;;;;;;;23.30;1.73;;;;;;;9.29;100.00;100112.25;4936041;29;20063;-75
2023/01/13 00:47:00;;;;;;;22.33;2.15;;;;;;;9.36;100.00;100101.66;4934044;29;20127;-76
2023/01/13 00:49:26;;;;;;;14.30;1.60;;;;;;;9.12;100.00;100085.53;4919131;29;20143;-75
2023/01/13 00:51:51;;;;;;;25.85;2.10;;;;;;;9.22;100.00;100083.72;4935041;29;20074;-75
2023/01/13 00:54:17;;;;;;;26.35;2.13;;;;;;;9.33;100.00;100083.69;4935156;29;20408;-75
2023/01/13 00:56:42;;;;;;;21.83;1.95;;;;;;;9.35;100.00;100080.81;4934283;29;20039;-75
2023/01/13 00:59:12;;;;;;;25.48;2.00;;;;;;;9.35;100.00;100073.47;4936578;29;20119;-74
2023/01/13 01:01:38;;;;;;;27.20;2.30;;;;;;;9.16;100.00;100052.34;4936140;29;20059;-75
2023/01/13 01:04:04;;;;;;;31.02;1.67;;;;;;;9.37;100.00;100076.94;4935522;29;20074;-75
2023/01/13 01:06:29;;;;;;;16.08;1.50;;;;;;;9.29;100.00;100075.88;4933867;29;20110;-74
2023/01/13 01:08:55;;;;;;;20.10;1.65;;;;;;;9.31;100.00;100085.69;4918381;29;20487;-75
2023/01/13 01:11:26;;;;;;;22.20;1.60;;;;;;;9.23;100.00;100085.47;4935436;29;20043;-75
2023/01/13 01:13:54;;;;;;;16.38;1.83;;;;;;;9.33;100.00;100090.97;4934527;29;20099;-75
2023/01/13 01:16:21;;;;;;;28.80;2.90;;;;;;;9.34;100.00;100093.59;4934332;29;20027;-75
2023/01/13 01:18:48;;;;;;;31.23;2.30;;;;;;;9.30;100.00;100094.88;4936109;29;20032;-76
2023/01/13 01:21:15;;;;;;;21.58;2.22;;;;;;;9.03;100.00;100092.63;4950720;29;20035;-75
2023/01/13 01:23:41;;;;;;;23.10;2.38;;;;;;;9.05;100.00;100084.31;4941520;29;20070;-75
2023/01/13 01:26:11;;;;;;;23.08;2.05;;;;;;;8.90;100.00;100087.34;4946956;28;20070;-75
2023/01/13 01:28:37;;;;;;;24.73;3.45;;;;;;;9.06;100.00;100092.38;4934661;29;20043;-75
2023/01/13 01:31:25;;;;;;;27.52;3.55;;;;;;;9.24;100.00;100097.25;4934959;29;20024;-75
2023/01/13 01:33:51;;;;;;;29.83;3.22;;;;;;;9.15;100.00;100104.34;4932937;29;20036;-76
2023/01/13 01:36:19;;;;;;;25.23;1.73;;;;;;;9.18;100.00;100101.38;4932149;29;20031;-75
2023/01/13 01:38:45;;;;;;;32.58;2.17;;;;;;;9.15;100.00;100093.44;4916628;29;20035;-75
2023/01/13 01:41:22;;;;;;;25.40;2.58;;;;;;;9.12;100.00;100108.22;4935670;29;20028;-74
2023/01/13 01:44:05;;;;;;;21.08;2.28;;;;;;;9.14;100.00;100116.28;4935964;29;20140;-74
2023/01/13 01:46:39;;;;;;;25.27;2.00;;;;;;;9.16;100.00;100120.63;4944646;28;20043;-74
2023/01/13 01:49:14;;;;;;;22.40;2.58;;;;;;;9.09;100.00;100113.09;4920038;29;20072;-74
2023/01/13 01:51:47;;;;;;;30.08;2.30;;;;;;;9.10;100.00;100120.28;4931100;29;20458;-74
2023/01/13 01:54:16;;;;;;;;;;;;;;;9.15;100.00;100124.34;4936206;29;20136;-75
2023/01/13 01:56:43;;;;;;;31.00;2.30;;;;;;;9.07;100.00;100124.16;4949712;29;19947;-75
2023/01/13 01:59:09;;;;;;;19.88;3.03;;;;;;;9.14;100.00;100135.41;4939357;29;20046;-75
2023/01/13 02:01:36;;;;;;;35.83;2.15;;;;;;;9.10;100.00;100109.34;4948053;29;20079;-75
2023/01/13 02:04:10;;;;;;;24.77;3.10;;;;;;;8.80;100.00;100124.59;4934142;29;20043;-75
2023/01/13 02:06:35;;;;;;;28.73;2.97;;;;;;;8.88;100.00;100126.69;4940883;29;20367;-74
2023/01/13 02:09:01;;;;;;;25.60;3.15;;;;;;;8.98;100.00;100120.31;4930889;29;20043;-75
2023/01/13 02:14:13;;;;;;;34.85;4.32;;;;;;;8.79;100.00;100121.00;4925737;29;20056;-75
2023/01/13 02:16:47;;;;;;;27.65;2.83;;;;;;;8.65;100.00;100110.38;4943140;29;20441;-74
2023/01/13 02:19:35;;;;;;;50.88;3.35;;;;;;;8.77;100.00;100105.75;4963780;28;20484;-75
2023/01/13 02:22:26;;;;;;;30.80;2.92;;;;;;;8.53;100.00;100087.72;4954576;29;20086;-74
2023/01/13 02:24:57;;;;;;;22.83;2.42;;;;;;;8.42;100.00;100101.34;4952859;28;20039;-75
2023/01/13 02:27:53;;;;;;;26.77;2.70;;;;;;;8.49;100.00;100099.84;4920524;29;20039;-74
2023/01/13 02:33:33;;;;;;;47.33;3.47;;;;;;;8.50;100.00;100098.88;4955541;28;20081;-74
2023/01/13 02:36:01;;;;;;;39.57;3.27;;;;;;;8.59;100.00;100102.69;4936853;29;20031;-74
2023/01/13 02:38:33;;;;;;;39.50;3.22;;;;;;;8.52;100.00;100099.59;4955465;28;20689;-74
2023/01/13 02:44:05;;;;;;;30.17;3.15;;;;;;;8.60;100.00;100102.56;4956862;29;20121;-74
2023/01/13 02:46:58;;;;;;;26.88;2.53;;;;;;;8.62;100.00;100105.16;4956285;29;20451;-75
2023/01/13 02:49:36;;;;;;;38.72;3.47;;;;;;;8.56;100.00;100106.56;4942511;29;20465;-75
2023/01/13 02:52:13;;;;;;;32.30;2.97;;;;;;;8.51;100.00;100108.81;4951551;28;20027;-75
2023/01/13 02:54:44;;;;;;;31.92;3.25;;;;;;;8.46;100.00;100095.53;4949494;28;20093;-74
2023/01/13 02:57:11;;;;;;;30.27;3.75;;;;;;;8.44;100.00;100108.44;4938124;29;20107;-74
2023/01/13 02:59:39;;;;;;;18.13;2.35;;;;;;;8.42;100.00;100101.34;4940287;29;20035;-74
2023/01/13 03:02:09;;;;;;;31.10;3.70;;;;;;;8.45;100.00;100098.38;4956281;28;20434;-74
2023/01/13 03:04:55;;;;;;;27.88;3.05;;;;;;;8.44;100.00;100086.63;4952157;29;20438;-74
2023/01/13 03:07:48;;;;;;;25.15;2.40;;;;;;;8.66;100.00;100114.84;4945648;28;20043;-74
2023/01/13 03:10:27;;;;;;;32.85;2.92;;;;;;;8.61;100.00;100112.50;4947901;29;20027;-75
2023/01/13 03:13:15;;;;;;;31.02;3.15;;;;;;;8.61;100.00;100101.56;4948867;28;20036;-74
2023/01/13 03:16:07;;;;;;;36.25;2.78;;;;;;;8.65;100.00;100091.28;4961034;28;20072;-74
2023/01/13 03:18:38;;;;;;;31.50;2.95;;;;;;;8.68;100.00;100076.50;4933983;29;20114;-75
2023/01/13 03:21:17;;;;;;;29.60;2.70;;;;;;;8.71;100.00;100076.25;4954706;28;20058;-74
2023/01/13 03:24:08;;;;;;;34.28;2.83;;;;;;;8.85;100.00;100075.09;4964656;28;20043;-74
2023/01/13 03:26:33;;;;;;;29.40;2.58;;;;;;;8.79;100.00;100073.75;4954942;28;20047;-75
2023/01/13 03:29:18;;;;;;;35.80;3.17;;;;;;;8.83;100.00;100076.06;4947005;29;20131;-75
2023/01/13 03:31:52;;;;;;;19.05;2.15;;;;;;;8.76;100.00;100071.28;4956592;28;20097;-74
2023/01/13 03:34:23;;;;;;;32.88;2.63;;;;;;;8.89;100.00;100073.84;4955099;28;20570;-75
2023/01/13 03:36:52;;;;;;;23.95;2.50;;;;;;;8.83;100.00;100086.97;4938723;29;20035;-75
2023/01/13 03:39:24;;;;;;;33.63;2.13;;;;;;;8.82;100.00;100081.66;4927832;29;20028;-74
2023/01/13 03:42:00;;;;;;;19.02;2.67;;;;;;;8.69;100.00;100067.31;4956188;28;20159;-74
2023/01/13 03:44:32;;;;;;;17.88;1.85;;;;;;;8.75;100.00;100072.25;4956792;28;20075;-74
2023/01/13 03:47:14;;;;;;;40.05;2.40;;;;;;;8.77;100.00;100081.19;4954643;28;20043;-74
2023/01/13 03:49:59;;;;;;;18.75;2.42;;;;;;;8.82;100.00;100078.91;4954510;28;20039;-75
2023/01/13 03:52:31;;;;;;;23.70;1.95;;;;;;;8.87;100.00;100075.81;4950341;28;20055;-74
2023/01/13 03:55:02;;;;;;;19.67;2.00;;;;;;;8.88;100.00;100080.28;4941650;28;20038;-74
2023/01/13 03:57:33;;;;;;;26.30;3.00;;;;;;;8.88;100.00;100075.69;4961518;28;20034;-74
2023/01/13 04:00:01;;;;;;;26.13;3.50;;;;;;;8.95;100.00;100081.47;4964453;28;20058;-74
2023/01/13 04:02:48;;;;;;;21.60;2.35;;;;;;;8.95;100.00;100095.13;4939576;29;20031;-75
2023/01/13 04:05:15;;;;;;;18.73;1.73;;;;;;;8.93;100.00;100102.59;4938917;29;20509;-74
2023/01/13 04:07:46;;;;;;;16.80;1.30;;;;;;;8.76;100.00;100090.38;4955037;28;20039;-74
2023/01/13 04:10:18;;;;;;;19.90;2.10;;;;;;;8.58;100.00;100081.88;4959728;28;20034;-74
2023/01/13 04:13:00;;;;;;;13.73;1.70;;;;;;;8.53;100.00;100071.34;4964460;28;20042;-74
2023/01/13 04:15:38;;;;;;;14.10;1.98;;;;;;;8.50;100.00;100068.88;4938328;29;20309;-74
2023/01/13 04:18:25;;;;;;;21.38;1.98;;;;;;;8.40;100.00;100065.13;4967134;28;20045;-74
2023/01/13 04:20:53;;;;;;;9.18;1.27;;;;;;;8.50;100.00;100063.41;4958264;28;20035;-74
2023/01/13 04:23:20;;;;;;;20.42;1.98;;;;;;;8.51;100.00;100061.53;4923276;29;20061;-74
2023/01/13 04:25:46;;;;;;;12.32;1.60;;;;;;;8.54;100.00;100078.50;4954273;29;20135;-74
2023/01/13 04:28:13;;;;;;;21.27;1.50;;;;;;;8.48;100.00;100075.44;4955059;28;20047;-74
2023/01/13 04:30:40;;;;;;;18.45;1.98;;;;;;;8.57;100.00;100080.13;4939336;29;20386;-74
2023/01/13 04:33:06;;;;;;;26.67;2.70;;;;;;;8.45;100.00;100088.34;4955522;29;20035;-75
2023/01/13 04:35:32;;;;;;;19.10;2.13;;;;;;;8.39;100.00;100083.34;4943077;29;20046;-74
2023/01/13 04:38:03;;;;;;;29.50;2.33;;;;;;;8.48;100.00;100076.31;4938838;29;20178;-77
2023/01/13 04:40:28;;;;;;;25.17;2.17;;;;;;;8.45;100.00;100074.69;4956104;29;20031;-75
2023/01/13 04:42:54;;;;;;;22.92;2.13;;;;;;;8.48;100.00;100070.84;4969103;28;20483;-74
2023/01/13 04:45:19;;;;;;;17.13;1.50;;;;;;;8.42;100.00;100074.91;4954124;29;20035;-73
2023/01/13 04:47:46;;;;;;;25.58;1.98;;;;;;;8.38;100.00;100073.44;4940384;29;20035;-74
2023/01/13 04:50:11;;;;;;;19.65;2.35;;;;;;;8.37;100.00;100079.88;4954380;28;20510;-74
2023/01/13 04:52:37;;;;;;;18.38;2.40;;;;;;;8.45;100.00;100077.41;4931926;29;20171;-74
2023/01/13 04:55:03;;;;;;;23.92;1.92;;;;;;;8.46;100.00;100072.81;4950863;28;20374;-74
2023/01/13 04:57:29;;;;;;;14.18;1.83;;;;;;;8.40;100.00;100074.19;4943220;28;20039;-74
2023/01/13 04:59:54;;;;;;;24.45;1.98;;;;;;;8.35;100.00;100056.47;4954109;28;20054;-74
2023/01/13 05:02:20;;;;;;;12.75;1.90;;;;;;;8.41;100.00;100085.94;4937314;29;20039;-73
2023/01/13 05:04:46;;;;;;;26.25;2.10;;;;;;;8.32;100.00;100084.00;4921852;28;20043;-74
2023/01/13 05:07:13;;;;;;;18.92;1.95;;;;;;;8.50;100.00;100085.22;4933396;28;20071;-74
2023/01/13 05:09:39;;;;;;;20.90;2.17;;;;;;;8.46;100.00;100067.38;4967150;28;20043;-74
2023/01/13 05:17:33;;;;;;;28.08;2.55;;;;;;;8.64;100.00;100087.69;4955720;29;20133;-74
2023/01/13 05:19:58;;;;;;;17.88;1.92;;;;;;;8.69;100.00;100090.03;4936921;29;20538;-74
2023/01/13 05:25:20;;;;;;;25.13;3.90;;;;;;;8.64;100.00;100084.94;4937945;28;20130;-73
2023/01/13 05:27:46;;;;;;;18.27;2.10;;;;;;;8.71;100.00;100081.72;4923123;29;20035;-74
2023/01/13 05:30:12;;;;;;;17.95;1.27;;;;;;;8.69;100.00;100087.31;4955438;28;20039;-76
2023/01/13 05:32:38;;;;;;;7.45;1.33;;;;;;;8.73;100.00;100085.19;4952584;28;20544;-73
2023/01/13 05:35:04;;;;;;;25.67;2.13;;;;;;;8.52;100.00;100083.22;4938096;29;20055;-74
2023/01/13 05:37:29;;;;;;;16.67;1.58;;;;;;;8.45;100.00;100082.03;4939300;28;20093;-73
2023/01/13 05:45:23;;;;;;;14.10;1.48;;;;;;;8.44;100.00;100099.38;4954708;28;20121;-75
2023/01/13 05:47:48;;;;;;;20.10;1.27;;;;;;;8.32;100.00;100094.91;4966801;28;20035;-75
2023/01/13 05:50:14;;;;;;;18.58;2.00;;;;;;;8.18;100.00;100101.47;4948415;29;20035;-75
2023/01/13 05:52:40;;;;;;;9.82;1.17;;;;;;;8.31;100.00;100085.84;4950366;29;20442;-74
2023/01/13 05:55:06;;;;;;;13.85;1.33;;;;;;;8.29;100.00;100096.00;4918601;29;20043;-74
2023/01/13 05:57:31;;;;;;;19.30;2.10;;;;;;;8.18;100.00;100083.28;4948822;28;20493;-76
2023/01/13 05:59:56;;;;;;;19.75;2.13;;;;;;;8.28;100.00;100097.03;4944298;29;20091;-74
2023/01/13 06:02:22;;;;;;;15.27;1.75;;;;;;;8.27;100.00;100103.47;4955080;29;20051;-74
2023/01/13 06:04:47;;;;;;;18.25;2.30;;;;;;;8.31;100.00;100110.38;4937074;29;20039;-75
2023/01/13 06:07:13;;;;;;;11.50;1.10;;;;;;;8.04;100.00;100108.91;4938665;29;20465;-75
2023/01/13 06:09:39;;;;;;;14.30;1.60;;;;;;;7.98;100.00;100070.38;4954193;29;20087;-76
2023/01/13 06:12:05;;;;;;;33.08;2.22;;;;;;;8.18;100.00;100101.47;4953352;28;20085;-75
2023/01/13 06:14:38;;;;;;;30.30;1.58;;;;;;;8.18;100.00;100102.38;4956809;28;20054;-75
2023/01/13 06:17:12;;;;;;;18.55;1.55;;;;;;;8.22;100.00;100102.97;4940788;28;20070;-74
2023/01/13 06:19:37;;;;;;;17.30;1.70;;;;;;;8.20;100.00;100114.00;4974415;28;20096;-74
2023/01/13 06:22:20;;;;;;;12.05;1.23;;;;;;;8.11;100.00;100128.38;4941944;29;20067;-74
2023/01/13 06:24:48;;;;;;;17.80;2.13;;;;;;;8.21;100.00;100132.09;4958200;28;20046;-74
2023/01/13 06:27:14;;;;;;;10.57;0.98;;;;;;;7.85;100.00;100130.47;4937859;29;20086;-74
2023/01/13 06:29:40;;;;;;;13.27;1.48;;;;;;;7.98;100.00;100125.75;4946912;29;20494;-74
2023/01/13 06:32:11;;;;;;;24.35;1.73;;;;;;;7.87;100.00;100125.75;4941145;29;20032;-74
2023/01/13 06:34:39;;;;;;;19.65;1.70;;;;;;;7.93;100.00;100132.59;4944367;29;20031;-74
2023/01/13 06:37:05;;;;;;;17.08;1.63;;;;;;;7.90;100.00;100140.03;4973558;28;20043;-74
2023/01/13 06:39:31;;;;;;;22.70;1.20;;;;;;;7.80;100.00;100132.69;4958962;28;20039;-75
2023/01/13 06:44:42;;;;;;;13.15;1.27;;;;;;;8.02;100.00;100138.16;4973056;28;20031;-75
2023/01/13 06:47:08;;;;;;;20.02;1.42;;;;;;;8.00;100.00;100131.97;4943588;28;20041;-74
2023/01/13 06:49:33;;;;;;;20.80;2.40;;;;;;;8.06;100.00;100146.97;4967694;28;20034;-75
2023/01/13 06:51:58;;;;;;;11.73;1.45;;;;;;;8.04;100.00;100141.63;4969959;28;20444;-74
2023/01/13 06:54:24;;;;;;;25.40;1.80;;;;;;;8.12;100.00;100154.66;4948301;28;20553;-74
2023/01/13 06:56:49;;;;;;;12.02;1.83;;;;;;;8.08;100.00;100140.41;4960419;28;20039;-75
2023/01/13 06:59:15;;;;;;;16.10;1.20;;;;;;;8.08;100.00;100144.97;4941205;29;20039;-75
2023/01/13 07:01:40;;;;;;;10.80;1.10;;;;;;;8.05;100.00;100150.66;4941002;29;20102;-75
2023/01/13 07:04:06;;;;;;;24.88;2.20;;;;;;;8.09;100.00;100135.81;4924927;29;20383;-75
2023/01/13 07:06:31;;;;;;;22.45;2.15;;;;;;;8.09;100.00;100138.53;4941279;29;20139;-74
2023/01/13 07:08:57;;;;;;;20.92;2.08;;;;;;;8.12;100.00;100143.75;4943467;28;20090;-75
2023/01/13 07:11:22;;;;;;;36.88;2.78;;;;;;;8.20;100.00;100148.56;4949285;28;20410;-74
2023/01/13 07:16:31;;;;;;;22.73;1.67;;;;;;;8.22;100.00;100147.47;4926687;29;20059;-73
2023/01/13 07:18:57;;;;;;;16.10;1.73;;;;;;;8.23;100.00;100146.47;4959952;28;20039;-73
2023/01/13 07:21:22;;;;;;;14.43;1.83;;;;;;;8.21;100.00;100150.31;4948725;28;20401;-76
2023/01/13 07:23:47;;;;;;;18.17;1.55;;;;;;;8.27;100.00;100153.41;4961159;28;20043;-76
2023/01/13 07:26:14;;;;;;;13.77;1.58;;;;;;;8.21;100.00;100147.59;4940162;28;20046;-77
2023/01/13 07:28:39;;;;;;;24.15;2.20;;;;;;;8.24;100.00;100140.03;4935619;28;20035;-75
2023/01/13 07:31:13;;;;;;;16.88;1.65;;;;;;;8.05;100.00;100137.94;4949050;29;20042;-76
2023/01/13 07:33:38;;;;;;;20.15;1.50;;;;;;;8.10;100.00;100149.31;4945993;28;20049;-75
2023/01/13 07:36:05;;;;;;;15.60;2.58;;;;;;;8.04;100.00;100157.13;4952345;28;20406;-76
2023/01/13 07:38:32;;;;;;;19.30;2.05;;;;;;;7.96;100.00;100130.47;4954422;28;20093;-76
2023/01/13 07:43:30;;;;;;;15.98;1.95;;;;;;;8.10;100.00;100152.06;4969685;28;20058;-75
2023/01/13 07:43:43;;;;;;;12.82;1.40;;;;;;;8.20;100.00;100149.47;4939063;29;20494;-76
2023/01/13 07:46:09;;;;;;;10.52;1.60;;;;;;;7.99;100.00;100151.19;4950301;28;20062;-76
2023/01/13 07:48:34;;;;;;;33.67;2.15;;;;;;;8.03;100.00;100158.09;4971979;28;20031;-75
2023/01/13 07:51:05;;;;;;;18.63;1.88;;;;;;;8.03;100.00;100166.28;4940711;29;20042;-75
2023/01/13 07:53:31;;;;;;;17.20;2.35;;;;;;;8.11;100.00;100155.63;4940637;29;20046;-75
2023/01/13 07:55:58;;;;;;;18.88;1.55;;;;;;;7.99;100.00;100173.00;4940962;29;20032;-75
2023/01/13 07:58:25;;;;;;;19.80;2.30;;;;;;;8.05;100.00;100172.47;4941264;29;20536;-75
2023/01/13 08:00:52;;;;;;;30.30;2.78;;;;;;;8.00;100.00;100167.41;4940679;29;20031;-75
2023/01/13 08:03:17;;;;;;;22.50;1.58;;;;;;;8.03;100.00;100178.06;4965281;28;20038;-75
2023/01/13 08:05:43;;;;;;;26.45;2.65;;;;;;;8.06;100.00;100180.53;4958390;28;20035;-75
2023/01/13 08:08:09;;;;;;;14.70;1.60;;;;;;;8.02;100.00;100175.47;4925160;29;20043;-76
2023/01/13 08:10:34;;;;;;;26.27;3.13;;;;;;;7.79;100.00;100175.44;4940939;29;20054;-76
2023/01/13 08:15:46;;;;;;;27.00;2.03;;;;;;;7.84;100.00;100173.22;4927207;29;20498;-74
2023/01/13 08:18:11;;;;;;;28.27;3.22;;;;;;;8.05;100.00;100188.84;4965214;28;20409;-75
2023/01/13 08:20:37;;;;;;;22.50;1.50;;;;;;;7.95;100.00;100166.88;4976699;28;20093;-74
2023/01/13 08:23:03;;;;;;;19.77;2.30;;;;;;;8.00;100.00;100193.78;4977077;28;20034;-75
2023/01/13 08:25:29;;;;;;;33.50;2.58;;;;;;;8.05;100.00;100192.44;4935172;29;20117;-76
2023/01/13 08:27:55;;;;;;;28.00;1.90;;;;;;;8.06;100.00;100185.13;4934444;28;20477;-75
2023/01/13 08:30:21;;;;;;;26.90;1.92;;;;;;;8.09;100.00;100199.38;4961130;29;20055;-75
2023/01/13 08:32:48;;;;;;;20.75;2.00;;;;;;;8.12;100.00;100195.56;4978717;28;20089;-75
2023/01/13 08:35:14;;;;;;;15.93;1.42;;;;;;;8.13;100.00;100205.44;4949836;28;20035;-76
2023/01/13 08:37:40;;;;;;;25.98;2.30;;;;;;;8.18;100.00;100210.53;4975625;28;20035;-75
2023/01/13 08:40:07;;;;;;;17.35;1.60;;;;;;;8.19;100.00;100199.53;4945897;28;20183;-75
2023/01/13 08:42:32;;;;;;;25.25;2.78;;;;;;;8.22;100.00;100204.72;4924166;29;20063;-75
2023/01/13 08:44:58;;;;;;;15.00;1.67;;;;;;;8.21;100.00;100213.03;4913564;29;20063;-75
2023/01/13 08:47:27;;;;;;;17.13;1.58;;;;;;;8.35;100.00;100206.50;4961286;28;20040;-75
2023/01/13 08:49:52;;;;;;;20.77;2.67;;;;;;;8.44;100.00;100208.50;4964558;29;20035;-78
2023/01/13 08:52:18;;;;;;;25.02;2.22;;;;;;;8.45;100.00;100207.50;4970628;28;20526;-76
2023/01/13 08:54:43;;;;;;;22.88;2.75;;;;;;;8.49;100.00;100217.16;4967413;28;20092;-76
2023/01/13 08:57:09;;;;;;;25.50;2.13;;;;;;;8.49;100.00;100213.56;4983990;28;20061;-76
2023/01/13 08:59:34;;;;;;;16.52;1.75;;;;;;;8.53;100.00;100226.00;4984563;28;20089;-77
2023/01/13 09:02:00;;;;;;;19.83;1.60;;;;;;;8.67;100.00;100233.03;4964564;29;20043;-78
2023/01/13 09:04:27;;;;;;;19.90;1.58;;;;;;;8.73;100.00;100232.56;4962714;28;20062;-77
2023/01/13 09:06:54;;;;;;;25.33;2.58;;;;;;;8.72;100.00;100234.41;4959803;28;20039;-76
2023/01/13 09:09:20;;;;;;;17.23;2.45;;;;;;;8.93;100.00;100242.69;4961433;28;20031;-76
2023/01/13 09:14:34;;;;;;;30.17;2.85;;;;;;;9.01;100.00;100237.47;4960537;28;20031;-76
2023/01/13 09:17:00;;;;;;;26.85;2.47;;;;;;;8.96;100.00;100230.66;4957358;28;20057;-76
2023/01/13 09:19:26;;;;;;;19.17;2.03;;;;;;;8.85;100.00;100226.06;4958207;28;20031;-77
2023/01/13 09:21:54;;;;;;;14.27;1.95;;;;;;;8.97;100.00;100221.50;4957288;28;20066;-76
2023/01/13 09:24:20;;;;;;;19.48;2.90;;;;;;;8.99;100.00;100231.28;4958980;29;20039;-76
2023/01/13 09:26:46;;;;;;;22.77;2.08;;;;;;;8.87;100.00;100239.59;4968414;28;20035;-76
2023/01/13 09:29:12;;;;;;;30.92;3.60;;;;;;;9.02;100.00;100217.38;4960964;28;20062;-76
2023/01/13 09:31:37;;;;;;;13.32;2.00;;;;;;;9.03;100.00;100212.75;4976621;28;20031;-77
2023/01/13 09:36:48;;;;;;;16.48;2.92;;;;;;;8.98;100.00;100225.94;4956417;28;20389;-76
2023/01/13 09:39:14;;;;;;;23.33;3.15;;;;;;;9.03;100.00;100231.88;4974214;28;20038;-76
2023/01/13 09:44:43;;;;;;;21.70;2.38;;;;;;;9.13;100.00;100251.09;4956938;28;20050;-77
2023/01/13 09:47:18;;;;;;;22.75;3.28;;;;;;;9.08;100.00;100247.88;4976649;28;20054;-76
2023/01/13 09:49:44;;;;;;;21.50;2.75;;;;;;;9.23;100.00;100273.94;4948820;29;20036;-76
2023/01/13 09:52:22;;;;;;;26.50;2.53;;;;;;;9.26;100.00;100270.06;4938877;28;20042;-76
2023/01/13 09:55:01;;;;;;;22.90;2.72;;;;;;;9.22;100.00;100269.47;4991580;28;20504;-77
2023/01/13 09:57:29;;;;;;;9.98;2.05;;;;;;;9.26;100.00;100270.06;4968459;28;20031;-75
2023/01/13 09:59:56;;;;;;;35.08;3.13;;;;;;;9.27;100.00;100280.88;4971677;28;20038;-76
2023/01/13 10:02:30;;;;;;;22.50;2.70;;;;;;;9.28;100.00;100281.72;4956745;29;20046;-76
2023/01/13 10:05:03;;;;;;;32.10;2.55;;;;;;;9.33;100.00;100277.63;4939442;29;20063;-76
2023/01/13 10:07:33;;;;;;;29.60;2.92;;;;;;;9.40;100.00;100268.94;4960497;28;20034;-76
2023/01/13 10:10:01;;;;;;;24.38;2.40;;;;;;;9.38;100.00;100278.13;4967432;28;20461;-77
2023/01/13 10:15:21;;;;;;;33.80;2.85;;;;;;;9.29;100.00;100273.41;4942182;28;20126;-75
2023/01/13 10:18:17;;;;;;;24.08;2.33;;;;;;;9.45;100.00;100270.28;4943074;28;20119;-76
2023/01/13 10:21:05;;;;;;;29.17;3.63;;;;;;;9.31;100.00;100282.38;4972272;28;20046;-76
2023/01/13 10:23:40;;;;;;;19.83;2.92;;;;;;;9.32;100.00;100284.09;4938948;29;20051;-77
2023/01/13 10:26:21;;;;;;;36.08;3.95;;;;;;;9.41;100.00;100276.13;4939452;29;20497;-76
2023/01/13 10:28:55;;;;;;;27.90;2.70;;;;;;;9.46;100.00;100279.31;4923311;29;20140;-76
2023/01/13 10:31:22;;;;;;;29.48;2.42;;;;;;;9.44;100.00;100273.13;4956494;29;20478;-77
2023/01/13 10:33:48;;;;;;;32.58;3.10;;;;;;;9.46;100.00;100279.31;4945615;28;20042;-76
2023/01/13 10:36:16;;;;;;;30.67;2.38;;;;;;;9.44;100.00;100286.78;4974614;28;20035;-76
2023/01/13 10:38:44;;;;;;;16.75;2.50;;;;;;;9.48;100.00;100288.28;4956863;28;20027;-76
2023/01/13 10:41:16;;;;;;;18.17;2.15;;;;;;;9.76;100.00;100284.09;4946030;29;20095;-77
2023/01/13 10:44:04;;;;;;;27.17;2.92;;;;;;;9.66;100.00;100264.88;4958856;28;20044;-76
2023/01/13 10:46:48;;;;;;;39.65;3.60;;;;;;;9.80;100.00;100281.94;4958183;28;20066;-76
2023/01/13 10:49:35;;;;;;;23.42;2.95;;;;;;;9.80;100.00;100285.53;4973612;28;20106;-76
2023/01/13 10:52:03;;;;;;;20.20;2.60;;;;;;;9.53;100.00;100289.63;4955596;28;20165;-79
2023/01/13 10:54:29;;;;;;;19.15;3.30;;;;;;;9.37;100.00;100286.44;4942972;28;20722;-77
2023/01/13 10:57:19;;;;;;;21.10;3.28;;;;;;;9.38;100.00;100315.50;4958536;28;20508;-78
2023/01/13 10:59:44;;;;;;;24.40;3.30;;;;;;;9.20;100.00;100313.28;4978764;28;20394;-76
2023/01/13 11:02:17;;;;;;;17.40;2.22;;;;;;;9.27;100.00;100321.00;4978738;28;20034;-79
2023/01/13 11:04:55;;;;;;;17.35;2.10;;;;;;;9.34;100.00;100327.69;4961079;28;20045;-77
2023/01/13 11:07:32;;;;;;;23.67;2.63;;;;;;;9.24;100.00;100332.16;4980032;28;20073;-76
2023/01/13 11:10:09;;;;;;;8.23;1.75;;;;;;;9.12;100.00;100342.25;4979536;28;20406;-76
2023/01/13 11:12:45;;;;;;;20.83;2.72;;;;;;;9.09;100.00;100340.63;4955714;28;20506;-76
2023/01/13 11:15:17;;;;;;;18.25;1.85;;;;;;;9.07;100.00;100341.72;4978597;28;20489;-76
2023/01/13 11:18:06;;;;;;;30.27;3.15;;;;;;;9.08;100.00;100346.19;4960859;28;20036;-77
2023/01/13 11:20:37;;;;;;;26.92;3.38;;;;;;;9.04;100.00;100355.66;4967727;28;20045;-76
2023/01/13 11:23:14;;;;;;;28.88;2.40;;;;;;;9.14;100.00;100337.50;4978472;28;20038;-76
2023/01/13 11:25:43;;;;;;;22.58;3.38;;;;;;;9.12;100.00;100345.84;4944964;28;20097;-76
2023/01/13 11:28:33;;;;;;;32.33;3.20;;;;;;;9.22;100.00;100342.34;4978678;28;20031;-76
2023/01/13 11:31:13;;;;;;;21.75;2.83;;;;;;;9.31;100.00;100349.78;4925569;29;20482;-76
2023/01/13 11:34:10;;;;;;;18.65;3.33;;;;;;;9.33;100.00;100355.97;4959931;29;20461;-76
2023/01/13 11:36:45;;;;;;;33.22;3.05;;;;;;;9.35;100.00;100360.34;4958166;28;20046;-76
2023/01/13 11:39:20;;;;;;;24.02;3.17;;;;;;;8.92;100.00;100369.28;4979965;28;20745;-76
2023/01/13 11:44:53;;;;;;;19.00;2.50;;;;;;;8.99;100.00;100375.13;4966148;28;20031;-76
2023/01/13 11:47:22;;;;;;;23.20;2.35;;;;;;;8.98;100.00;100374.25;4933946;28;20102;-76
2023/01/13 11:49:47;;;;;;;26.50;2.28;;;;;;;8.96;100.00;100367.19;4978083;28;20085;-76
2023/01/13 11:52:36;;;;;;;29.83;2.40;;;;;;;8.96;100.00;100375.38;4960619;28;20034;-76
2023/01/13 11:55:45;;;;;;;41.00;4.03;;;;;;;8.94;100.00;100367.31;4974067;28;20042;-76
2023/01/13 11:58:21;;;;;;;31.38;4.00;;;;;;;9.09;100.00;100376.13;4942089;28;20500;-77
2023/01/13 12:01:01;;;;;;;22.48;2.60;;;;;;;9.13;100.00;100382.19;4959229;28;20166;-76
2023/01/13 12:03:45;;;;;;;26.92;4.32;;;;;;;9.15;100.00;100378.34;4941075;29;20036;-76
2023/01/13 12:06:17;;;;;;;;;;;;;;;9.12;100.00;100377.75;4971647;28;20055;-77
2023/01/13 12:08:58;;;;;;;23.65;2.70;;;;;;;9.12;100.00;100388.66;4937956;29;19918;-78
2023/01/13 12:11:32;;;;;;;37.03;3.03;;;;;;;9.10;100.00;100382.44;4956385;28;20031;-76
2023/01/13 12:14:21;;;;;;;31.63;3.45;;;;;;;9.06;100.00;100384.56;4976624;28;20065;-76
2023/01/13 12:16:48;;;;;;;27.33;2.78;;;;;;;9.07;100.00;100393.59;4972553;28;20043;-75
2023/01/13 12:19:29;;;;;;;31.00;4.00;;;;;;;9.15;100.00;100394.75;4961341;29;20071;-77